Time;durP1;ratioP1;P1;durP2;ratioP2;P2;SDS_P1;SDS_P2;PMS_P1;PMS_P2;Temp;Humidity;BMP_temperature;BMP_pressure;BME280_temperature;BME280_humidity;BME280_pressure;Samples;Min_cycle;Max_cycle;Signal;HPM_P1;HPM_P2
2020/12/12 00:00:57;;;;;;;;;;;18.70;40.30;;;;;;491652;240;1187;-54
2020/12/12 00:02:58;;;;;;;;;;;18.60;40.30;;;;;;491796;240;998;-54
2020/12/12 00:04:59;;;;;;;;;;;18.60;40.30;;;;;;491598;240;1283;-54
2020/12/12 00:07:00;;;;;;;;;;;18.60;40.20;;;;;;491565;240;1061;-53
2020/12/12 00:09:02;;;;;;;;;;;18.60;40.30;;;;;;491643;240;964;-53
2020/12/12 00:11:03;;;;;;;;;;;18.60;40.30;;;;;;491632;240;1084;-54
2020/12/12 00:13:07;;;;;;;;;;;18.60;40.30;;;;;;491909;240;2180;-54
2020/12/12 00:15:05;;;;;;;;;;;18.60;40.30;;;;;;491735;238;2120;-54
2020/12/12 00:17:07;;;;;;;;;;;18.60;40.30;;;;;;491675;240;1081;-53
2020/12/12 00:19:08;;;;;;;;;;;18.60;40.30;;;;;;491741;240;1058;-54
2020/12/12 00:21:09;;;;;;;;;;;18.60;40.30;;;;;;491556;240;1168;-54
2020/12/12 00:23:11;;;;;;;;;;;18.60;40.30;;;;;;491786;240;1026;-53
2020/12/12 00:25:12;;;;;;;;;;;18.60;40.30;;;;;;491924;240;1341;-54
2020/12/12 00:27:15;;;;;;;;;;;18.60;40.30;;;;;;491613;240;1197;-54
2020/12/12 00:29:16;;;;;;;;;;;18.60;40.30;;;;;;491725;240;1077;-54
2020/12/12 00:31:17;;;;;;;;;;;18.50;40.30;;;;;;491635;240;1190;-54
2020/12/12 00:33:19;;;;;;;;;;;18.60;40.30;;;;;;491640;240;2179;-54
2020/12/12 00:35:20;;;;;;;;;;;18.60;40.40;;;;;;491627;240;1372;-54
2020/12/12 00:37:21;;;;;;;;;;;18.60;40.30;;;;;;491929;240;1070;-53
2020/12/12 00:39:22;;;;;;;;;;;18.60;40.40;;;;;;491623;240;1056;-54
2020/12/12 00:41:24;;;;;;;;;;;18.60;40.30;;;;;;491713;240;1266;-54
2020/12/12 00:43:25;;;;;;;;;;;18.50;40.30;;;;;;491610;240;1053;-54
2020/12/12 00:45:26;;;;;;;;;;;18.50;40.30;;;;;;491607;240;1311;-54
2020/12/12 00:47:27;;;;;;;;;;;18.60;40.40;;;;;;491734;240;976;-54
2020/12/12 00:49:29;;;;;;;;;;;18.50;40.30;;;;;;491609;240;1350;-54
2020/12/12 00:51:30;;;;;;;;;;;18.50;40.30;;;;;;491800;240;1644;-54
2020/12/12 00:53:31;;;;;;;;;;;18.50;40.30;;;;;;491592;240;2183;-54
2020/12/12 00:55:33;;;;;;;;;;;18.50;40.30;;;;;;491627;240;1046;-54
2020/12/12 00:57:34;;;;;;;;;;;18.50;40.30;;;;;;492012;240;1070;-54
2020/12/12 00:59:35;;;;;;;;;;;18.50;40.40;;;;;;491654;240;1056;-53
2020/12/12 01:01:36;;;;;;;;;;;18.50;40.30;;;;;;491692;240;1149;-54
2020/12/12 01:03:38;;;;;;;;;;;18.60;40.40;;;;;;491799;240;1078;-53
2020/12/12 01:05:39;;;;;;;;;;;18.60;40.40;;;;;;491610;240;1064;-54
2020/12/12 01:07:40;;;;;;;;;;;18.50;40.40;;;;;;491560;240;1208;-53
2020/12/12 01:09:42;;;;;;;;;;;18.50;40.40;;;;;;491645;240;1165;-54
2020/12/12 01:11:43;;;;;;;;;;;18.50;40.40;;;;;;491627;240;1231;-54
2020/12/12 01:13:44;;;;;;;;;;;18.50;40.40;;;;;;491611;240;2192;-54
2020/12/12 01:15:45;;;;;;;;;;;18.50;40.40;;;;;;491606;240;1277;-54
2020/12/12 01:17:47;;;;;;;;;;;18.50;40.40;;;;;;491628;240;1199;-54
2020/12/12 01:19:49;;;;;;;;;;;18.50;40.40;;;;;;491721;240;1019;-54
2020/12/12 01:21:51;;;;;;;;;;;18.50;40.40;;;;;;491664;240;1204;-54
2020/12/12 01:23:52;;;;;;;;;;;18.50;40.40;;;;;;492126;240;959;-53
2020/12/12 01:25:53;;;;;;;;;;;18.50;40.40;;;;;;491638;240;990;-54
2020/12/12 01:27:55;;;;;;;;;;;18.50;40.40;;;;;;491841;240;1070;-54
2020/12/12 01:29:56;;;;;;;;;;;18.50;40.40;;;;;;491620;240;1303;-53
2020/12/12 01:31:57;;;;;;;;;;;18.50;40.40;;;;;;491621;240;1168;-53
2020/12/12 01:33:58;;;;;;;;;;;18.50;40.40;;;;;;491757;240;1048;-53
2020/12/12 01:35:59;;;;;;;;;;;18.50;40.40;;;;;;491692;240;991;-54
2020/12/12 01:38:01;;;;;;;;;;;18.50;40.40;;;;;;491702;240;1041;-54
2020/12/12 01:40:02;;;;;;;;;;;18.50;40.40;;;;;;491812;240;1060;-54
2020/12/12 01:42:03;;;;;;;;;;;18.50;40.40;;;;;;491589;240;1049;-54
2020/12/12 01:44:05;;;;;;;;;;;18.50;40.40;;;;;;491622;240;982;-53
2020/12/12 01:46:06;;;;;;;;;;;18.50;40.40;;;;;;491599;240;1181;-54
2020/12/12 01:48:07;;;;;;;;;;;18.50;40.40;;;;;;491649;240;1114;-53
2020/12/12 01:50:08;;;;;;;;;;;18.50;40.40;;;;;;491674;240;950;-54
2020/12/12 01:52:10;;;;;;;;;;;18.40;40.40;;;;;;491619;240;2183;-54
2020/12/12 01:54:11;;;;;;;;;;;18.40;40.40;;;;;;491642;240;992;-54
2020/12/12 01:56:12;;;;;;;;;;;18.50;40.40;;;;;;491630;240;1178;-53
2020/12/12 01:58:14;;;;;;;;;;;18.40;40.40;;;;;;491719;240;1245;-54
2020/12/12 02:00:15;;;;;;;;;;;18.40;40.40;;;;;;491631;240;992;-53
2020/12/12 02:02:16;;;;;;;;;;;18.40;40.40;;;;;;491607;240;1188;-54
2020/12/12 02:04:17;;;;;;;;;;;18.40;40.40;;;;;;491761;240;1049;-54
2020/12/12 02:06:19;;;;;;;;;;;18.40;40.40;;;;;;491758;240;1325;-53
2020/12/12 02:08:20;;;;;;;;;;;18.40;40.40;;;;;;491600;240;1020;-53
2020/12/12 02:10:21;;;;;;;;;;;18.40;40.40;;;;;;491648;240;1091;-54
2020/12/12 02:12:22;;;;;;;;;;;18.40;40.40;;;;;;491587;240;2189;-53
2020/12/12 02:14:24;;;;;;;;;;;18.40;40.40;;;;;;491627;240;1054;-53
2020/12/12 02:16:25;;;;;;;;;;;18.40;40.40;;;;;;491572;238;1330;-54
2020/12/12 02:18:27;;;;;;;;;;;18.40;40.40;;;;;;491597;240;982;-53
2020/12/12 02:20:28;;;;;;;;;;;18.40;40.40;;;;;;491638;240;1093;-54
2020/12/12 02:22:29;;;;;;;;;;;18.50;40.40;;;;;;491669;240;1197;-54
2020/12/12 02:24:33;;;;;;;;;;;18.50;40.30;;;;;;491661;240;1075;-54
2020/12/12 02:26:32;;;;;;;;;;;18.50;40.30;;;;;;491595;242;1876;-54
2020/12/12 02:28:38;;;;;;;;;;;18.50;40.20;;;;;;491611;240;1086;-53
2020/12/12 02:30:35;;;;;;;;;;;18.50;40.20;;;;;;491570;241;2257;-54
2020/12/12 02:32:38;;;;;;;;;;;18.60;40.20;;;;;;491683;240;2196;-54
2020/12/12 02:34:39;;;;;;;;;;;18.60;38.80;;;;;;491768;240;1035;-54
2020/12/12 02:36:40;;;;;;;;;;;18.60;40.10;;;;;;491670;240;1057;-54
2020/12/12 02:38:41;;;;;;;;;;;18.60;40.10;;;;;;491899;240;1043;-54
2020/12/12 02:40:43;;;;;;;;;;;18.60;40.00;;;;;;491839;240;1095;-54
2020/12/12 02:42:44;;;;;;;;;;;18.60;40.00;;;;;;491912;240;1082;-54
2020/12/12 02:44:45;;;;;;;;;;;18.70;40.00;;;;;;491759;240;1043;-54
2020/12/12 02:46:47;;;;;;;;;;;18.70;40.00;;;;;;491651;240;1176;-54
2020/12/12 02:48:49;;;;;;;;;;;18.70;40.00;;;;;;491838;240;1059;-53
2020/12/12 02:50:49;;;;;;;;;;;18.70;40.00;;;;;;491624;240;2296;-54
2020/12/12 02:52:50;;;;;;;;;;;18.70;39.90;;;;;;491742;240;2173;-53
2020/12/12 02:54:52;;;;;;;;;;;18.70;39.90;;;;;;491653;240;1029;-54
2020/12/12 02:56:53;;;;;;;;;;;18.70;39.80;;;;;;491650;240;1085;-54
2020/12/12 02:58:54;;;;;;;;;;;18.70;39.80;;;;;;491756;240;1044;-54
2020/12/12 03:00:55;;;;;;;;;;;18.80;39.80;;;;;;491651;240;1060;-54
2020/12/12 03:02:57;;;;;;;;;;;18.80;39.80;;;;;;491707;240;1264;-54
2020/12/12 03:04:58;;;;;;;;;;;18.80;39.80;;;;;;491643;240;1051;-54
2020/12/12 03:06:59;;;;;;;;;;;18.80;39.80;;;;;;492085;240;1083;-54
2020/12/12 03:09:01;;;;;;;;;;;18.80;39.70;;;;;;491641;240;1060;-54
2020/12/12 03:11:02;;;;;;;;;;;18.90;39.70;;;;;;491663;240;987;-54
2020/12/12 03:13:03;;;;;;;;;;;18.90;39.70;;;;;;491649;240;2199;-54
2020/12/12 03:15:05;;;;;;;;;;;18.90;39.70;;;;;;491628;240;1048;-54
2020/12/12 03:17:09;;;;;;;;;;;18.90;39.60;;;;;;491624;240;1196;-54
2020/12/12 03:19:08;;;;;;;;;;;18.90;39.60;;;;;;491899;241;2172;-54
2020/12/12 03:21:10;;;;;;;;;;;18.90;39.60;;;;;;491775;240;1040;-54
2020/12/12 03:23:11;;;;;;;;;;;18.90;39.60;;;;;;491918;240;1063;-54
2020/12/12 03:25:13;;;;;;;;;;;18.90;39.50;;;;;;491652;240;1065;-54
2020/12/12 03:27:14;;;;;;;;;;;19.00;39.60;;;;;;491701;240;963;-54
2020/12/12 03:29:15;;;;;;;;;;;19.00;39.60;;;;;;491823;240;980;-54
2020/12/12 03:31:17;;;;;;;;;;;19.00;39.50;;;;;;491672;240;962;-54
2020/12/12 03:33:18;;;;;;;;;;;19.00;39.50;;;;;;491553;240;2191;-54
2020/12/12 03:35:21;;;;;;;;;;;19.00;39.50;;;;;;491736;240;1054;-53
2020/12/12 03:37:22;;;;;;;;;;;19.00;39.50;;;;;;491616;240;1029;-54
2020/12/12 03:39:23;;;;;;;;;;;19.00;39.50;;;;;;491631;240;1044;-54
2020/12/12 03:41:25;;;;;;;;;;;19.10;39.50;;;;;;491713;240;1061;-54
2020/12/12 03:43:26;;;;;;;;;;;19.10;39.50;;;;;;491600;240;1225;-54
2020/12/12 03:45:27;;;;;;;;;;;19.10;39.40;;;;;;491600;240;1118;-54
2020/12/12 03:47:28;;;;;;;;;;;19.10;39.40;;;;;;491640;240;1180;-54
2020/12/12 03:49:30;;;;;;;;;;;19.10;39.40;;;;;;491977;240;1081;-54
2020/12/12 03:51:31;;;;;;;;;;;19.10;39.40;;;;;;491733;240;1050;-54
2020/12/12 03:53:32;;;;;;;;;;;19.20;39.40;;;;;;491637;240;2195;-53
2020/12/12 03:55:34;;;;;;;;;;;19.20;39.40;;;;;;491651;240;1047;-54
2020/12/12 03:57:35;;;;;;;;;;;19.20;39.40;;;;;;491787;240;1177;-54
2020/12/12 03:59:36;;;;;;;;;;;19.20;39.40;;;;;;491777;240;1045;-54
2020/12/12 04:01:37;;;;;;;;;;;19.20;39.30;;;;;;491603;240;1030;-54
2020/12/12 04:03:39;;;;;;;;;;;19.20;39.30;;;;;;491715;240;1146;-54
2020/12/12 04:05:44;;;;;;;;;;;19.20;39.30;;;;;;491837;240;1057;-54
2020/12/12 04:07:41;;;;;;;;;;;19.20;39.30;;;;;;491617;242;2028;-54
2020/12/12 04:09:43;;;;;;;;;;;19.20;39.30;;;;;;491652;242;1089;-54
2020/12/12 04:11:44;;;;;;;;;;;19.20;39.20;;;;;;491774;240;1192;-54
2020/12/12 04:13:45;;;;;;;;;;;19.20;39.20;;;;;;491746;240;2191;-53
2020/12/12 04:15:47;;;;;;;;;;;19.30;39.30;;;;;;491640;240;1123;-54
2020/12/12 04:17:48;;;;;;;;;;;19.30;39.30;;;;;;491642;240;1337;-54
2020/12/12 04:19:49;;;;;;;;;;;19.30;39.20;;;;;;491663;240;1270;-54
2020/12/12 04:21:50;;;;;;;;;;;19.30;39.20;;;;;;491639;240;1078;-54
2020/12/12 04:23:52;;;;;;;;;;;19.30;39.20;;;;;;491889;240;1022;-54
2020/12/12 04:25:53;;;;;;;;;;;19.30;39.20;;;;;;491635;240;1121;-54
2020/12/12 04:27:54;;;;;;;;;;;19.30;39.10;;;;;;491631;240;979;-54
2020/12/12 04:29:55;;;;;;;;;;;19.30;39.10;;;;;;491589;240;1074;-54
2020/12/12 04:31:57;;;;;;;;;;;19.40;39.20;;;;;;491667;240;1052;-54
2020/12/12 04:33:58;;;;;;;;;;;19.40;39.10;;;;;;491651;240;2184;-54
2020/12/12 04:35:59;;;;;;;;;;;19.40;39.10;;;;;;491702;240;1046;-54
2020/12/12 04:38:01;;;;;;;;;;;19.40;39.10;;;;;;491702;240;1047;-54
2020/12/12 04:40:03;;;;;;;;;;;19.40;39.10;;;;;;491830;240;995;-54
2020/12/12 04:42:03;;;;;;;;;;;19.40;39.10;;;;;;491682;241;2176;-53
2020/12/12 04:44:04;;;;;;;;;;;19.40;39.10;;;;;;491995;240;1140;-54
2020/12/12 04:46:06;;;;;;;;;;;19.40;39.10;;;;;;491757;240;1067;-54
2020/12/12 04:48:07;;;;;;;;;;;19.40;39.10;;;;;;491673;240;1128;-54
2020/12/12 04:50:08;;;;;;;;;;;19.50;39.10;;;;;;491667;240;1062;-53
2020/12/12 04:52:09;;;;;;;;;;;19.40;39.00;;;;;;491680;240;1063;-54
2020/12/12 04:54:11;;;;;;;;;;;19.40;39.00;;;;;;491834;240;2196;-54
2020/12/12 04:56:12;;;;;;;;;;;19.50;39.00;;;;;;491591;240;1048;-54
2020/12/12 04:58:13;;;;;;;;;;;19.50;39.00;;;;;;491723;240;1062;-54
2020/12/12 05:00:15;;;;;;;;;;;19.50;39.00;;;;;;491734;240;1242;-54
2020/12/12 05:02:16;;;;;;;;;;;19.50;39.00;;;;;;491654;240;1032;-54
2020/12/12 05:04:17;;;;;;;;;;;19.50;39.00;;;;;;491663;240;1347;-54
2020/12/12 05:06:18;;;;;;;;;;;19.50;39.00;;;;;;491656;240;1250;-54
2020/12/12 05:08:20;;;;;;;;;;;19.50;39.00;;;;;;491692;240;1073;-54
2020/12/12 05:10:21;;;;;;;;;;;19.50;39.00;;;;;;491728;240;1209;-54
2020/12/12 05:12:22;;;;;;;;;;;19.50;39.00;;;;;;491626;240;972;-54
2020/12/12 05:14:24;;;;;;;;;;;19.50;38.90;;;;;;491638;240;2192;-54
2020/12/12 05:16:25;;;;;;;;;;;19.60;39.00;;;;;;491582;240;1178;-54
2020/12/12 05:18:26;;;;;;;;;;;19.50;38.90;;;;;;491615;240;1170;-54
2020/12/12 05:20:27;;;;;;;;;;;19.60;38.90;;;;;;491600;240;1336;-54
2020/12/12 05:22:29;;;;;;;;;;;19.60;38.90;;;;;;491842;240;1041;-54
2020/12/12 05:24:30;;;;;;;;;;;19.60;38.90;;;;;;491623;240;1274;-54
2020/12/12 05:26:31;;;;;;;;;;;19.60;38.90;;;;;;491592;240;1213;-54
2020/12/12 05:28:33;;;;;;;;;;;19.60;38.90;;;;;;491615;240;1068;-54
2020/12/12 05:30:34;;;;;;;;;;;19.60;38.90;;;;;;491587;240;1182;-54
2020/12/12 05:32:35;;;;;;;;;;;19.60;38.90;;;;;;491648;240;994;-54
2020/12/12 05:34:37;;;;;;;;;;;19.60;38.80;;;;;;491729;240;2192;-54
2020/12/12 05:36:38;;;;;;;;;;;19.60;38.90;;;;;;491742;240;1058;-54
2020/12/12 05:38:39;;;;;;;;;;;19.60;38.80;;;;;;491658;240;1013;-53
2020/12/12 05:40:40;;;;;;;;;;;19.70;38.80;;;;;;491698;240;1069;-54
2020/12/12 05:42:42;;;;;;;;;;;19.60;38.80;;;;;;491742;240;2994;-54
2020/12/12 05:44:43;;;;;;;;;;;19.60;38.80;;;;;;491768;240;1063;-54
2020/12/12 05:46:44;;;;;;;;;;;19.70;38.80;;;;;;491674;240;985;-54
2020/12/12 05:48:46;;;;;;;;;;;19.70;38.80;;;;;;491654;240;1171;-54
2020/12/12 05:50:47;;;;;;;;;;;19.70;38.80;;;;;;491621;240;1099;-54
2020/12/12 05:52:48;;;;;;;;;;;19.70;38.80;;;;;;491658;240;1080;-54
2020/12/12 05:54:49;;;;;;;;;;;19.70;38.80;;;;;;491641;240;2195;-54
2020/12/12 05:56:51;;;;;;;;;;;19.70;38.80;;;;;;491626;240;1077;-54
2020/12/12 05:58:52;;;;;;;;;;;19.70;38.80;;;;;;491620;240;1047;-54
2020/12/12 06:00:53;;;;;;;;;;;19.70;38.80;;;;;;491699;240;1066;-54
2020/12/12 06:02:55;;;;;;;;;;;19.70;38.70;;;;;;491601;240;1134;-54
2020/12/12 06:04:56;;;;;;;;;;;19.70;38.80;;;;;;491609;239;1346;-54
2020/12/12 06:06:58;;;;;;;;;;;19.70;38.80;;;;;;491616;240;1061;-54
2020/12/12 06:08:59;;;;;;;;;;;19.80;38.80;;;;;;491946;240;995;-53
2020/12/12 06:11:00;;;;;;;;;;;19.70;38.80;;;;;;491626;240;1060;-54
2020/12/12 06:13:01;;;;;;;;;;;19.80;38.80;;;;;;492026;240;1112;-54
2020/12/12 06:15:03;;;;;;;;;;;19.80;38.80;;;;;;491855;240;2196;-54
2020/12/12 06:17:04;;;;;;;;;;;19.80;38.70;;;;;;491589;240;1021;-54
2020/12/12 06:19:05;;;;;;;;;;;19.80;38.70;;;;;;491616;240;1165;-54
2020/12/12 06:21:07;;;;;;;;;;;19.80;38.70;;;;;;491819;240;1096;-54
2020/12/12 06:23:08;;;;;;;;;;;19.80;38.70;;;;;;491829;240;1201;-54
2020/12/12 06:25:09;;;;;;;;;;;19.80;38.70;;;;;;491626;240;967;-53
2020/12/12 06:27:10;;;;;;;;;;;19.80;38.70;;;;;;491698;240;1084;-54
2020/12/12 06:29:14;;;;;;;;;;;19.80;38.70;;;;;;491825;240;1073;-54
2020/12/12 06:31:13;;;;;;;;;;;19.80;38.60;;;;;;491678;241;2224;-54
2020/12/12 06:33:15;;;;;;;;;;;19.80;38.60;;;;;;491619;240;1065;-53
2020/12/12 06:35:16;;;;;;;;;;;19.80;38.70;;;;;;491645;240;2184;-54
2020/12/12 06:37:17;;;;;;;;;;;19.80;38.60;;;;;;491873;240;999;-54
2020/12/12 06:39:18;;;;;;;;;;;19.80;38.60;;;;;;491787;240;1074;-54
2020/12/12 06:41:20;;;;;;;;;;;19.90;38.70;;;;;;491778;240;1085;-54
2020/12/12 06:43:21;;;;;;;;;;;19.80;38.60;;;;;;491630;240;1051;-54
2020/12/12 06:45:23;;;;;;;;;;;19.90;38.70;;;;;;491604;240;1024;-54
2020/12/12 06:47:24;;;;;;;;;;;19.80;38.60;;;;;;491843;240;1126;-54
2020/12/12 06:49:25;;;;;;;;;;;19.90;38.60;;;;;;491585;240;1188;-54
2020/12/12 06:51:26;;;;;;;;;;;19.90;38.60;;;;;;491743;240;1076;-54
2020/12/12 06:53:28;;;;;;;;;;;19.90;38.60;;;;;;491614;240;1113;-54
2020/12/12 06:55:29;;;;;;;;;;;19.90;38.60;;;;;;491621;240;2191;-54
2020/12/12 06:57:34;;;;;;;;;;;19.90;38.60;;;;;;491797;240;2453;-54
2020/12/12 06:59:35;;;;;;;;;;;19.90;38.60;;;;;;491596;242;2502;-54
2020/12/12 07:01:35;;;;;;;;;;;19.90;38.60;;;;;;491615;240;2048;-54
2020/12/12 07:03:37;;;;;;;;;;;19.90;38.60;;;;;;491615;240;1249;-54
2020/12/12 07:05:38;;;;;;;;;;;19.90;38.60;;;;;;491680;240;1171;-54
2020/12/12 07:07:39;;;;;;;;;;;19.90;38.60;;;;;;491642;240;1058;-54
2020/12/12 07:09:41;;;;;;;;;;;19.90;38.50;;;;;;491615;240;1258;-54
2020/12/12 07:11:42;;;;;;;;;;;19.90;38.50;;;;;;491582;240;1184;-54
2020/12/12 07:13:43;;;;;;;;;;;19.90;38.50;;;;;;491638;240;996;-53
2020/12/12 07:15:45;;;;;;;;;;;19.90;38.50;;;;;;491489;240;2184;-54
2020/12/12 07:17:46;;;;;;;;;;;19.90;38.50;;;;;;491576;240;1060;-54
2020/12/12 07:19:47;;;;;;;;;;;20.00;38.50;;;;;;491572;240;1366;-54
2020/12/12 07:21:49;;;;;;;;;;;19.90;38.50;;;;;;491647;240;1201;-54
2020/12/12 07:23:50;;;;;;;;;;;20.00;38.80;;;;;;491639;240;1068;-54
2020/12/12 07:25:51;;;;;;;;;;;20.00;38.70;;;;;;491554;240;1133;-54
2020/12/12 07:27:52;;;;;;;;;;;20.00;38.60;;;;;;491634;240;1136;-53
2020/12/12 07:29:54;;;;;;;;;;;20.10;38.50;;;;;;491798;240;1225;-54
2020/12/12 07:31:55;;;;;;;;;;;20.10;38.40;;;;;;491616;240;1058;-54
2020/12/12 07:33:56;;;;;;;;;;;20.10;38.50;;;;;;491657;240;1354;-54
2020/12/12 07:35:58;;;;;;;;;;;20.00;38.50;;;;;;491617;240;2192;-54
2020/12/12 07:37:59;;;;;;;;;;;19.90;38.60;;;;;;491617;240;1056;-54
2020/12/12 07:40:00;;;;;;;;;;;19.90;38.70;;;;;;491658;240;1393;-54
2020/12/12 07:42:01;;;;;;;;;;;19.90;38.80;;;;;;491607;240;1029;-53
2020/12/12 07:44:03;;;;;;;;;;;19.80;38.80;;;;;;491630;240;1284;-54
2020/12/12 07:46:08;;;;;;;;;;;19.80;38.90;;;;;;491607;240;1224;-54
2020/12/12 07:48:05;;;;;;;;;;;19.80;38.90;;;;;;491672;241;2189;-54
2020/12/12 07:50:07;;;;;;;;;;;19.80;39.00;;;;;;491674;239;1282;-54
2020/12/12 07:52:08;;;;;;;;;;;19.70;39.00;;;;;;491982;240;1040;-54
2020/12/12 07:54:09;;;;;;;;;;;19.70;39.10;;;;;;491723;240;2203;-54
2020/12/12 07:56:10;;;;;;;;;;;19.70;39.10;;;;;;491768;240;965;-54
2020/12/12 07:58:12;;;;;;;;;;;19.60;39.10;;;;;;491960;240;1074;-54
2020/12/12 08:00:13;;;;;;;;;;;19.60;39.20;;;;;;491647;240;1047;-54
2020/12/12 08:02:14;;;;;;;;;;;19.60;39.20;;;;;;491948;240;1038;-54
2020/12/12 08:04:15;;;;;;;;;;;19.60;39.30;;;;;;491818;240;1043;-54
2020/12/12 08:06:17;;;;;;;;;;;19.50;39.30;;;;;;491666;240;1175;-53
2020/12/12 08:08:18;;;;;;;;;;;19.50;39.30;;;;;;491729;240;1069;-54
2020/12/12 08:10:19;;;;;;;;;;;19.50;39.40;;;;;;491622;240;1038;-53
2020/12/12 08:12:21;;;;;;;;;;;19.40;39.40;;;;;;491845;240;1026;-54
2020/12/12 08:14:22;;;;;;;;;;;19.40;39.40;;;;;;491637;240;2187;-54
2020/12/12 08:16:27;;;;;;;;;;;19.40;39.40;;;;;;491589;240;1063;-54
2020/12/12 08:18:24;;;;;;;;;;;19.40;39.50;;;;;;491717;241;2174;-54
2020/12/12 08:20:26;;;;;;;;;;;19.40;39.50;;;;;;491631;240;1161;-53
2020/12/12 08:22:27;;;;;;;;;;;19.40;39.60;;;;;;491593;240;1109;-54
2020/12/12 08:24:28;;;;;;;;;;;19.30;39.50;;;;;;491592;240;995;-54
2020/12/12 08:26:30;;;;;;;;;;;19.30;39.60;;;;;;491669;240;1336;-54
2020/12/12 08:28:31;;;;;;;;;;;19.30;39.60;;;;;;491577;240;1019;-54
2020/12/12 08:30:32;;;;;;;;;;;19.30;39.60;;;;;;491741;240;979;-54
2020/12/12 08:32:33;;;;;;;;;;;19.30;39.70;;;;;;491584;240;1103;-54
2020/12/12 08:34:35;;;;;;;;;;;19.30;39.70;;;;;;491709;240;2164;-53
2020/12/12 08:36:37;;;;;;;;;;;19.30;39.70;;;;;;491674;240;1236;-53
2020/12/12 08:38:37;;;;;;;;;;;19.30;39.70;;;;;;491612;240;2334;-54
2020/12/12 08:40:39;;;;;;;;;;;19.20;39.70;;;;;;491642;240;995;-53
2020/12/12 08:42:40;;;;;;;;;;;19.20;39.70;;;;;;491717;240;1069;-53
2020/12/12 08:44:41;;;;;;;;;;;19.20;39.80;;;;;;491827;240;1049;-53
2020/12/12 08:46:43;;;;;;;;;;;19.20;39.80;;;;;;491857;240;1041;-54
2020/12/12 08:48:44;;;;;;;;;;;19.20;39.80;;;;;;491616;240;1075;-54
2020/12/12 08:50:45;;;;;;;;;;;19.20;39.80;;;;;;491596;240;1194;-54
2020/12/12 08:52:47;;;;;;;;;;;19.20;39.90;;;;;;491748;240;1099;-54
2020/12/12 08:54:48;;;;;;;;;;;19.10;39.80;;;;;;491552;240;2185;-53
2020/12/12 08:56:49;;;;;;;;;;;19.10;39.80;;;;;;491525;240;1043;-53
2020/12/12 08:58:51;;;;;;;;;;;19.10;39.90;;;;;;491726;240;1086;-54
2020/12/12 09:00:52;;;;;;;;;;;19.10;39.90;;;;;;491603;240;1165;-54
2020/12/12 09:02:53;;;;;;;;;;;19.10;39.90;;;;;;491649;240;1029;-54
2020/12/12 09:04:54;;;;;;;;;;;19.10;39.90;;;;;;491770;240;1349;-54
2020/12/12 09:06:57;;;;;;;;;;;19.10;39.90;;;;;;491709;240;1233;-54
2020/12/12 09:08:57;;;;;;;;;;;19.00;39.90;;;;;;491603;242;2114;-54
2020/12/12 09:10:58;;;;;;;;;;;19.00;39.90;;;;;;491785;240;1316;-53
2020/12/12 09:13:00;;;;;;;;;;;19.00;39.90;;;;;;491575;240;1076;-54
2020/12/12 09:15:01;;;;;;;;;;;19.00;39.90;;;;;;491984;240;2208;-54
2020/12/12 09:17:02;;;;;;;;;;;19.00;40.00;;;;;;491609;240;1098;-54
2020/12/12 09:19:05;;;;;;;;;;;19.00;40.00;;;;;;491766;240;1065;-53
2020/12/12 09:21:05;;;;;;;;;;;19.00;40.00;;;;;;491567;238;2284;-54
2020/12/12 09:23:06;;;;;;;;;;;19.00;40.00;;;;;;491652;240;1016;-54
2020/12/12 09:25:07;;;;;;;;;;;19.00;40.00;;;;;;491620;240;1220;-54
2020/12/12 09:27:12;;;;;;;;;;;19.00;40.00;;;;;;491739;240;1267;-54
2020/12/12 09:29:10;;;;;;;;;;;19.00;40.00;;;;;;491616;242;1417;-53
2020/12/12 09:31:11;;;;;;;;;;;19.00;40.00;;;;;;491608;240;1069;-54
2020/12/12 09:33:12;;;;;;;;;;;18.90;40.00;;;;;;491639;240;1453;-54
2020/12/12 09:35:14;;;;;;;;;;;18.90;40.00;;;;;;491772;240;2208;-54
2020/12/12 09:37:15;;;;;;;;;;;19.00;40.00;;;;;;491553;240;1291;-54
2020/12/12 09:39:16;;;;;;;;;;;18.90;40.00;;;;;;491937;240;1178;-54
2020/12/12 09:41:17;;;;;;;;;;;18.90;40.00;;;;;;491664;240;1084;-54
2020/12/12 09:43:19;;;;;;;;;;;18.90;40.10;;;;;;491708;240;1293;-54
2020/12/12 09:45:20;;;;;;;;;;;18.90;40.10;;;;;;491807;240;1235;-54
2020/12/12 09:47:21;;;;;;;;;;;18.90;40.00;;;;;;491785;240;1352;-53
2020/12/12 09:49:23;;;;;;;;;;;18.90;40.10;;;;;;491629;240;1227;-54
2020/12/12 09:51:24;;;;;;;;;;;18.90;40.10;;;;;;491653;240;1273;-54
2020/12/12 09:53:25;;;;;;;;;;;18.90;40.10;;;;;;491618;240;1112;-54
2020/12/12 09:55:26;;;;;;;;;;;18.90;40.10;;;;;;491702;240;2208;-54
2020/12/12 09:57:28;;;;;;;;;;;18.90;40.10;;;;;;491622;240;1169;-54
2020/12/12 09:59:29;;;;;;;;;;;18.90;40.10;;;;;;491659;240;1224;-53
2020/12/12 10:01:30;;;;;;;;;;;18.90;40.10;;;;;;491621;240;1375;-54
2020/12/12 10:03:31;;;;;;;;;;;18.90;40.10;;;;;;491876;240;973;-54
2020/12/12 10:05:33;;;;;;;;;;;18.90;40.10;;;;;;491672;240;1026;-54
2020/12/12 10:07:34;;;;;;;;;;;18.90;40.10;;;;;;491765;240;1254;-54
2020/12/12 10:09:35;;;;;;;;;;;18.90;40.10;;;;;;491602;240;1261;-54
2020/12/12 10:11:37;;;;;;;;;;;18.80;40.10;;;;;;491580;240;1451;-53
2020/12/12 10:13:38;;;;;;;;;;;18.90;40.10;;;;;;491625;240;1161;-54
2020/12/12 10:15:39;;;;;;;;;;;18.80;40.10;;;;;;491575;240;2176;-54
2020/12/12 10:17:40;;;;;;;;;;;18.80;40.10;;;;;;491839;240;1212;-54
2020/12/12 10:19:42;;;;;;;;;;;18.80;40.10;;;;;;491850;240;1329;-54
2020/12/12 10:21:43;;;;;;;;;;;18.80;40.00;;;;;;491565;240;1394;-54
2020/12/12 10:23:44;;;;;;;;;;;18.80;40.10;;;;;;491581;240;1126;-53
2020/12/12 10:25:45;;;;;;;;;;;18.80;40.10;;;;;;491584;240;1320;-54
2020/12/12 10:27:47;;;;;;;;;;;18.80;40.10;;;;;;491917;240;1129;-54
2020/12/12 10:29:48;;;;;;;;;;;18.80;40.10;;;;;;491653;240;961;-53
2020/12/12 10:31:49;;;;;;;;;;;18.80;40.10;;;;;;491599;240;1315;-54
2020/12/12 10:33:51;;;;;;;;;;;18.80;40.10;;;;;;491928;240;1337;-54
2020/12/12 10:35:52;;;;;;;;;;;18.80;40.20;;;;;;491614;240;2191;-54
2020/12/12 10:37:54;;;;;;;;;;;18.80;40.10;;;;;;491786;240;1205;-54
2020/12/12 10:40:00;;;;;;;;;;;18.80;40.20;;;;;;491906;241;2506;-53
2020/12/12 10:41:56;;;;;;;;;;;18.80;40.10;;;;;;491581;242;2457;-54
2020/12/12 10:43:58;;;;;;;;;;;18.80;40.20;;;;;;491641;240;1083;-54
2020/12/12 10:46:02;;;;;;;;;;;18.80;40.20;;;;;;491786;240;1066;-54
2020/12/12 10:48:00;;;;;;;;;;;18.80;40.10;;;;;;491603;242;2342;-54
2020/12/12 10:50:01;;;;;;;;;;;18.80;40.10;;;;;;491726;240;1053;-54
2020/12/12 10:52:03;;;;;;;;;;;18.80;40.10;;;;;;491830;238;1294;-53
2020/12/12 10:54:04;;;;;;;;;;;18.80;40.10;;;;;;491727;240;1082;-54
2020/12/12 10:56:06;;;;;;;;;;;18.80;40.10;;;;;;491620;240;2196;-53
2020/12/12 10:58:07;;;;;;;;;;;18.80;40.10;;;;;;491774;240;1047;-53
2020/12/12 11:00:08;;;;;;;;;;;18.80;40.10;;;;;;491573;240;1130;-54
2020/12/12 11:02:10;;;;;;;;;;;18.80;40.10;;;;;;491670;240;1042;-54
2020/12/12 11:04:11;;;;;;;;;;;18.80;40.10;;;;;;491820;240;1091;-54
2020/12/12 11:06:12;;;;;;;;;;;18.80;40.10;;;;;;491600;240;1233;-54
2020/12/12 11:08:14;;;;;;;;;;;18.80;40.10;;;;;;491599;240;1200;-54
2020/12/12 11:10:15;;;;;;;;;;;18.80;40.10;;;;;;491759;240;1195;-54
2020/12/12 11:12:17;;;;;;;;;;;18.80;40.10;;;;;;491652;240;1222;-54
2020/12/12 11:14:18;;;;;;;;;;;18.70;40.10;;;;;;491897;240;1346;-54
2020/12/12 11:16:19;;;;;;;;;;;18.80;40.10;;;;;;491584;240;2194;-54
2020/12/12 11:18:20;;;;;;;;;;;18.80;38.80;;;;;;491606;240;1185;-53
2020/12/12 11:20:22;;;;;;;;;;;18.80;40.10;;;;;;491604;240;1362;-54
2020/12/12 11:22:23;;;;;;;;;;;18.70;40.10;;;;;;491922;240;1231;-53
2020/12/12 11:24:24;;;;;;;;;;;18.70;40.10;;;;;;492061;240;1360;-54
2020/12/12 11:26:25;;;;;;;;;;;18.70;40.10;;;;;;491613;240;1231;-54
2020/12/12 11:28:27;;;;;;;;;;;18.70;40.10;;;;;;491629;240;1045;-54
2020/12/12 11:30:29;;;;;;;;;;;18.70;40.10;;;;;;491880;240;1129;-53
2020/12/12 11:32:29;;;;;;;;;;;18.70;40.10;;;;;;491603;240;1388;-53
2020/12/12 11:34:34;;;;;;;;;;;18.80;40.10;;;;;;491779;240;1074;-54
2020/12/12 11:39:07;;;;;;;;;;;18.70;40.10;;;;;;474611;250;1227;-54
2020/12/12 11:41:13;;;;;;;;;;;18.70;40.10;;;;;;490175;241;2231;-54
2020/12/12 11:47:55;;;;;;;;;;;18.80;40.10;;;;;;491637;240;1209;-54
2020/12/12 11:49:56;;;;;;;;;;;18.70;40.00;;;;;;491632;240;949;-54
2020/12/12 11:51:57;;;;;;;;;;;18.80;40.00;;;;;;491653;240;1029;-54
2020/12/12 11:53:59;;;;;;;;;;;18.80;40.00;;;;;;491600;240;1196;-53
2020/12/12 11:56:00;;;;;;;;;;;18.80;40.00;;;;;;491599;240;2191;-54
2020/12/12 11:58:01;;;;;;;;;;;18.80;40.00;;;;;;491641;240;1051;-53
2020/12/12 12:00:07;;;;;;;;;;;18.80;40.00;;;;;;491577;240;1242;-53
2020/12/12 12:02:04;;;;;;;;;;;18.80;40.00;;;;;;491574;242;2231;-54
2020/12/12 12:04:05;;;;;;;;;;;18.80;40.00;;;;;;492043;240;1085;-53